createdAt,value
2022-09-28T00:01:11.129Z,11.83
2022-09-28T00:06:18.885Z,12.01
2022-09-28T00:11:24.154Z,12.04
2022-09-28T00:16:30.203Z,12.28
2022-09-28T00:21:36.932Z,12.48
2022-09-28T00:26:41.357Z,12.66
2022-09-28T00:31:46.045Z,12.54
2022-09-28T00:36:49.331Z,12.35
2022-09-28T00:41:54.123Z,12.20
2022-09-28T00:47:13.210Z,12.37
2022-09-28T00:52:23.604Z,12.59
2022-09-28T00:57:28.870Z,12.95
2022-09-28T01:02:32.232Z,13.05
2022-09-28T01:07:37.137Z,13.14
2022-09-28T01:12:40.545Z,13.31
2022-09-28T01:18:05.370Z,13.40
2022-09-28T01:23:43.264Z,13.42
2022-09-28T01:28:48.728Z,13.34
2022-09-28T01:34:00.081Z,13.43
2022-09-28T01:39:38.489Z,13.52
2022-09-28T01:44:47.159Z,13.23
2022-09-28T01:50:04.556Z,12.91
2022-09-28T01:55:17.300Z,12.81
2022-09-28T02:00:25.461Z,12.74
2022-09-28T02:05:35.901Z,12.50
2022-09-28T02:10:48.197Z,12.24
2022-09-28T02:15:59.229Z,12.15
2022-09-28T02:21:28.816Z,12.09
2022-09-28T02:26:38.198Z,12.52
2022-09-28T02:31:42.557Z,12.51
2022-09-28T02:36:47.311Z,12.23
2022-09-28T02:41:59.736Z,12.29
2022-09-28T02:47:26.764Z,12.15
2022-09-28T02:53:03.657Z,12.60
2022-09-28T02:58:40.943Z,12.62
2022-09-28T03:03:45.042Z,12.56
2022-09-28T03:09:07.504Z,12.38
2022-09-28T03:14:13.438Z,12.36
2022-09-28T03:19:33.138Z,11.98
2022-09-28T03:24:37.627Z,11.55
2022-09-28T03:29:41.183Z,11.38
2022-09-28T03:34:45.137Z,11.27
2022-09-28T03:39:48.946Z,11.38
2022-09-28T03:44:53.085Z,11.12
2022-09-28T03:49:56.498Z,10.89
2022-09-28T03:54:59.897Z,10.80
2022-09-28T04:00:05.635Z,10.47
2022-09-28T04:05:16.742Z,10.72
2022-09-28T04:10:21.217Z,10.63
2022-09-28T04:15:25.352Z,10.54
2022-09-28T04:20:29.102Z,10.58
2022-09-28T04:25:39.853Z,10.46
2022-09-28T04:30:47.616Z,10.59
2022-09-28T04:35:51.563Z,10.94
2022-09-28T04:40:54.716Z,10.69
2022-09-28T04:46:03.073Z,10.40
2022-09-28T04:51:13.027Z,10.28
2022-09-28T04:56:17.766Z,10.27
2022-09-28T05:01:23.930Z,10.18
2022-09-28T05:06:48.079Z,10.07
2022-09-28T05:11:53.332Z,10.16
2022-09-28T05:16:59.481Z,10.14
2022-09-28T05:22:07.462Z,10.26
2022-09-28T05:27:15.266Z,10.35
2022-09-28T05:32:21.567Z,10.54
2022-09-28T05:37:48.318Z,10.83
2022-09-28T05:42:51.700Z,11.43
2022-09-28T05:47:55.912Z,11.85
2022-09-28T05:53:11.603Z,12.26
2022-09-28T05:58:15.315Z,12.58
2022-09-28T06:03:18.832Z,13.00
2022-09-28T06:08:23.149Z,13.68
2022-09-28T06:13:43.089Z,19.76
2022-09-28T06:18:48.657Z,23.00
2022-09-28T06:24:10.481Z,25.34
2022-09-28T06:29:20.016Z,26.28
2022-09-28T06:34:25.012Z,27.14
2022-09-28T06:39:29.535Z,26.08
2022-09-28T06:44:34.296Z,26.52
2022-09-28T06:50:00.503Z,26.85
2022-09-28T06:55:24.835Z,27.62
2022-09-28T07:00:35.551Z,28.12
2022-09-28T07:05:43.500Z,28.68
2022-09-28T07:11:07.791Z,27.79
2022-09-28T07:16:26.427Z,27.54
2022-09-28T07:21:34.097Z,26.16
2022-09-28T07:26:40.734Z,24.77
2022-09-28T07:31:56.515Z,27.39
2022-09-28T07:37:05.959Z,27.02
2022-09-28T07:42:09.644Z,26.21
2022-09-28T07:47:12.988Z,25.82
2022-09-28T07:52:39.517Z,26.43
2022-09-28T07:58:01.806Z,26.49
2022-09-28T08:03:40.246Z,26.67
2022-09-28T08:08:45.544Z,26.11
2022-09-28T08:13:53.164Z,26.52
2022-09-28T08:19:14.817Z,26.46
2022-09-28T08:24:18.300Z,26.68
2022-09-28T08:29:23.480Z,26.66
2022-09-28T08:34:46.343Z,26.61
2022-09-28T08:40:19.024Z,27.25
2022-09-28T08:45:43.077Z,27.82
2022-09-28T08:51:15.850Z,28.28
2022-09-28T08:56:32.997Z,27.64
2022-09-28T09:01:44.430Z,27.52
2022-09-28T09:07:00.059Z,27.26
2022-09-28T09:12:43.794Z,27.58
2022-09-28T09:18:19.261Z,27.84
2022-09-28T09:23:56.369Z,27.57
2022-09-28T09:29:09.674Z,28.19
2022-09-28T09:34:42.813Z,27.60
2022-09-28T09:40:07.658Z,26.58
2022-09-28T09:45:56.911Z,26.30
2022-09-28T09:51:23.428Z,27.39
2022-09-28T09:56:44.189Z,27.22
2022-09-28T10:01:56.590Z,26.43
2022-09-28T10:07:23.106Z,26.83
2022-09-28T10:12:27.202Z,26.43
2022-09-28T10:17:31.696Z,26.25
2022-09-28T10:23:02.653Z,26.60
2022-09-28T10:28:07.954Z,25.90
2022-09-28T10:33:33.018Z,26.48
2022-09-28T10:38:36.411Z,23.85
2022-09-28T10:44:07.010Z,23.45
2022-09-28T10:49:47.103Z,24.61
2022-09-28T10:54:54.159Z,25.91
2022-09-28T10:59:59.442Z,25.66
2022-09-28T11:05:07.561Z,24.85
2022-09-28T11:10:23.332Z,24.38
2022-09-28T11:15:32.001Z,25.15
2022-09-28T11:20:42.643Z,25.46
2022-09-28T11:26:07.270Z,26.40
2022-09-28T11:31:12.170Z,25.81
2022-09-28T11:36:41.837Z,26.16
2022-09-28T11:42:00.240Z,25.62
2022-09-28T11:47:35.205Z,26.18
2022-09-28T11:52:46.461Z,25.30
2022-09-28T11:58:03.967Z,25.19
2022-09-28T12:03:35.085Z,25.47
2022-09-28T12:08:46.233Z,25.25
2022-09-28T12:14:19.090Z,25.85
2022-09-28T12:19:33.958Z,25.78
2022-09-28T12:24:40.191Z,26.21
2022-09-28T12:29:49.012Z,25.84
2022-09-28T12:34:52.833Z,25.68
2022-09-28T12:40:30.237Z,25.53
2022-09-28T12:46:10.912Z,25.28
2022-09-28T12:51:45.512Z,25.00
2022-09-28T12:56:58.332Z,25.44
2022-09-28T13:02:34.295Z,25.99
2022-09-28T13:07:44.798Z,26.94
2022-09-28T13:13:00.117Z,26.86
2022-09-28T13:18:23.315Z,27.43
2022-09-28T13:23:31.390Z,27.18
2022-09-28T13:28:36.391Z,26.60
2022-09-28T13:33:40.890Z,27.11
2022-09-28T13:38:49.856Z,26.90
2022-09-28T13:44:28.313Z,27.16
2022-09-28T13:49:54.617Z,27.68
2022-09-28T13:55:04.018Z,26.52
2022-09-28T14:00:28.394Z,26.20
2022-09-28T14:05:42.010Z,27.62
2022-09-28T14:10:57.154Z,27.53
2022-09-28T14:16:21.234Z,27.13
2022-09-28T14:21:56.072Z,27.44
2022-09-28T14:27:05.087Z,27.02
2022-09-28T14:32:13.523Z,26.51
2022-09-28T14:37:49.838Z,26.74
2022-09-28T14:43:25.135Z,27.25
2022-09-28T14:48:51.227Z,26.88
2022-09-28T14:53:56.040Z,26.71
2022-09-28T14:58:59.705Z,26.38
2022-09-28T15:04:05.377Z,26.58
2022-09-28T15:09:27.485Z,26.14
2022-09-28T15:14:33.509Z,25.46
2022-09-28T15:19:43.505Z,24.59
2022-09-28T15:25:01.348Z,24.17
2022-09-28T15:30:25.873Z,23.50
2022-09-28T15:35:30.309Z,23.10
2022-09-28T15:40:38.122Z,23.27
2022-09-28T15:45:43.762Z,23.18
2022-09-28T15:51:21.496Z,23.61
2022-09-28T15:56:28.858Z,23.16
2022-09-28T16:01:38.291Z,22.53
2022-09-28T16:06:42.002Z,22.05
2022-09-28T16:11:45.032Z,21.87
2022-09-28T16:16:50.029Z,21.28
2022-09-28T16:21:56.060Z,21.10
2022-09-28T16:27:03.180Z,20.27
2022-09-28T16:32:27.170Z,19.11
2022-09-28T16:37:32.984Z,18.77
2022-09-28T16:42:36.937Z,18.39
2022-09-28T16:47:40.952Z,17.93
2022-09-28T16:53:02.392Z,17.72
2022-09-28T16:58:06.991Z,17.35
2022-09-28T17:03:19.163Z,17.00
2022-09-28T17:08:24.639Z,16.79
2022-09-28T17:13:34.103Z,16.47
2022-09-28T17:18:39.519Z,16.18
2022-09-28T17:23:47.801Z,15.92
2022-09-28T17:28:51.238Z,15.72
2022-09-28T17:33:55.844Z,15.65
2022-09-28T17:38:58.924Z,15.52
2022-09-28T17:44:03.303Z,15.28
2022-09-28T17:49:07.871Z,15.13
2022-09-28T17:54:13.098Z,14.96
2022-09-28T17:59:18.082Z,14.94
2022-09-28T18:04:50.379Z,14.87
2022-09-28T19:13:02.462Z,15.10
2022-09-28T19:18:25.459Z,14.60
2022-09-28T19:23:28.889Z,14.27
2022-09-28T19:28:32.555Z,14.03
2022-09-28T19:33:40.305Z,13.75
2022-09-28T19:38:44.293Z,13.54
2022-09-28T19:49:37.261Z,13.11
2022-09-28T19:54:41.633Z,12.95
2022-09-28T19:59:45.396Z,12.81
2022-09-28T20:04:50.365Z,12.72
2022-09-28T20:09:53.773Z,12.68
2022-09-28T20:14:56.687Z,12.62
2022-09-28T20:20:00.038Z,12.51
2022-09-28T20:25:03.529Z,12.46
2022-09-28T20:30:08.124Z,12.45
2022-09-28T20:35:11.734Z,12.31
2022-09-28T20:40:15.028Z,12.21
2022-09-28T20:45:18.377Z,12.17
2022-09-28T20:50:23.628Z,12.19
2022-09-28T20:55:26.841Z,12.23
2022-09-28T21:00:29.859Z,12.55
2022-09-28T21:05:36.532Z,12.97
2022-09-28T21:10:43.855Z,13.19
2022-09-28T21:15:49.476Z,13.27
2022-09-28T21:20:52.364Z,13.20
2022-09-28T21:26:26.402Z,13.24
2022-09-28T21:31:32.828Z,13.19
2022-09-28T21:36:36.258Z,13.19
2022-09-28T21:41:39.821Z,13.17
2022-09-28T21:46:43.370Z,12.92
2022-09-28T21:51:47.250Z,12.60
2022-09-28T21:56:50.066Z,12.53
2022-09-28T22:01:53.979Z,12.56
2022-09-28T22:06:57.251Z,12.53
2022-09-28T22:12:00.600Z,12.66
2022-09-28T22:17:04.249Z,12.63
2022-09-28T22:22:07.487Z,12.37
2022-09-28T22:27:10.357Z,12.16
2022-09-28T22:32:13.246Z,12.17
2022-09-28T22:37:16.118Z,12.56
2022-09-28T22:42:23.065Z,12.69
2022-09-28T22:47:25.976Z,12.77
2022-09-28T22:52:28.897Z,13.02
2022-09-28T22:57:32.532Z,13.25
2022-09-28T23:02:35.687Z,13.30
2022-09-28T23:07:38.967Z,13.27
2022-09-28T23:12:42.733Z,12.96
2022-09-28T23:17:46.036Z,13.07
2022-09-28T23:22:50.783Z,12.96
2022-09-28T23:27:53.628Z,12.97
2022-09-28T23:32:57.071Z,13.14
2022-09-28T23:38:00.968Z,13.08
2022-09-28T23:43:04.243Z,13.04
2022-09-28T23:48:07.668Z,13.10
2022-09-28T23:53:13.837Z,13.28
2022-09-28T23:58:17.510Z,13.60
